createdAt,value
2018-11-07T00:00:49.777Z,23.67
2018-11-07T00:03:19.047Z,22.80
2018-11-07T00:05:47.603Z,22.53
2018-11-07T00:08:16.214Z,22.87
2018-11-07T00:10:44.334Z,21.50
2018-11-07T00:13:12.671Z,21.07
2018-11-07T00:15:41.015Z,22.37
2018-11-07T00:18:09.698Z,21.63
2018-11-07T00:20:37.948Z,20.53
2018-11-07T00:23:06.571Z,21.07
2018-11-07T00:25:34.835Z,22.70
2018-11-07T00:28:03.100Z,22.50
2018-11-07T00:30:32.252Z,22.00
2018-11-07T00:33:00.495Z,21.30
2018-11-07T00:35:28.781Z,21.30
2018-11-07T00:37:57.471Z,22.30
2018-11-07T00:40:25.747Z,22.07
2018-11-07T00:42:53.979Z,21.23
2018-11-07T00:45:22.575Z,21.30
2018-11-07T00:47:51.463Z,21.30
2018-11-07T00:50:19.918Z,20.60
2018-11-07T00:52:48.143Z,20.50
2018-11-07T00:55:16.655Z,20.60
2018-11-07T00:57:45.066Z,21.17
2018-11-07T01:00:15.510Z,21.73
2018-11-07T01:02:44.505Z,20.60
2018-11-07T01:05:13.758Z,20.33
2018-11-07T01:07:42.995Z,22.37
2018-11-07T01:10:11.728Z,23.27
2018-11-07T01:12:40.391Z,19.73
2018-11-07T01:15:09.280Z,22.80
2018-11-07T01:17:38.057Z,21.40
2018-11-07T01:20:07.771Z,22.83
2018-11-07T01:22:36.136Z,20.80
2018-11-07T01:25:05.228Z,21.90
2018-11-07T01:27:33.466Z,21.70
2018-11-07T01:30:01.699Z,19.60
2018-11-07T01:34:53.489Z,20.77
2018-11-07T01:37:21.993Z,19.43
2018-11-07T01:39:50.254Z,19.73
2018-11-07T01:42:18.952Z,20.67
2018-11-07T01:44:47.550Z,20.87
2018-11-07T01:47:15.811Z,21.40
2018-11-07T01:49:44.060Z,19.60
2018-11-07T01:52:12.341Z,21.20
2018-11-07T01:54:42.269Z,20.50
2018-11-07T01:57:10.551Z,20.80
2018-11-07T01:59:38.823Z,18.83
2018-11-07T02:02:07.091Z,19.20
2018-11-07T02:04:36.007Z,18.37
2018-11-07T02:07:04.398Z,21.13
2018-11-07T02:10:57.417Z,20.80
2018-11-07T02:13:25.637Z,20.77
2018-11-07T02:15:54.022Z,19.43
2018-11-07T02:18:22.662Z,19.53
2018-11-07T02:20:50.942Z,19.33
2018-11-07T02:23:19.199Z,19.63
2018-11-07T02:25:47.611Z,21.03
2018-11-07T02:28:15.904Z,20.03
2018-11-07T02:30:44.232Z,19.83
2018-11-07T02:33:12.794Z,20.47
2018-11-07T02:35:41.089Z,21.47
2018-11-07T02:38:09.607Z,21.07
2018-11-07T02:40:37.857Z,21.23
2018-11-07T02:43:06.075Z,20.37
2018-11-07T02:45:34.701Z,19.73
2018-11-07T02:48:03.523Z,20.33
2018-11-07T02:50:31.759Z,20.03
2018-11-07T02:52:59.996Z,20.07
2018-11-07T02:55:28.682Z,21.00
2018-11-07T02:57:56.921Z,19.20
2018-11-07T03:00:25.223Z,19.80
2018-11-07T03:02:54.033Z,19.40
2018-11-07T03:05:22.709Z,18.57
2018-11-07T03:07:51.494Z,20.13
2018-11-07T03:10:19.793Z,18.90
2018-11-07T03:12:47.995Z,18.63
2018-11-07T03:15:16.227Z,20.40
2018-11-07T03:17:44.891Z,19.60
2018-11-07T03:20:13.391Z,18.43
2018-11-07T03:22:41.903Z,19.30
2018-11-07T03:25:10.147Z,18.40
2018-11-07T03:27:38.377Z,20.83
2018-11-07T03:30:07.476Z,19.37
2018-11-07T03:32:36.172Z,22.27
2018-11-07T03:35:05.195Z,21.70
2018-11-07T03:37:33.807Z,20.10
2018-11-07T03:40:02.059Z,18.60
2018-11-07T03:42:30.266Z,17.07
2018-11-07T03:44:58.875Z,17.93
2018-11-07T03:47:27.095Z,19.83
2018-11-07T03:49:55.292Z,18.23
2018-11-07T03:52:23.531Z,18.43
2018-11-07T03:54:52.303Z,18.50
2018-11-07T03:57:20.539Z,18.53
2018-11-07T03:59:48.752Z,20.20
2018-11-07T04:02:16.998Z,18.83
2018-11-07T04:04:45.828Z,18.10
2018-11-07T04:07:14.093Z,17.43
2018-11-07T04:09:42.278Z,18.43
2018-11-07T04:12:10.803Z,17.13
2018-11-07T04:14:39.022Z,18.37
2018-11-07T04:17:07.623Z,19.07
2018-11-07T04:19:35.850Z,17.20
2018-11-07T04:22:04.125Z,18.07
2018-11-07T04:24:32.404Z,16.67
2018-11-07T04:27:00.607Z,17.40
2018-11-07T04:29:30.123Z,20.30
2018-11-07T04:31:58.406Z,18.07
2018-11-07T04:34:27.139Z,16.60
2018-11-07T04:36:56.177Z,15.80
2018-11-07T04:39:25.047Z,15.87
2018-11-07T04:41:53.287Z,18.03
2018-11-07T04:44:22.007Z,18.90
2018-11-07T04:46:50.305Z,17.43
2018-11-07T04:49:18.546Z,17.97
2018-11-07T04:51:46.846Z,15.27
2018-11-07T04:54:15.649Z,16.80
2018-11-07T04:56:43.875Z,16.80
2018-11-07T04:59:12.085Z,15.57
2018-11-07T05:01:40.362Z,18.23
2018-11-07T05:04:09.180Z,16.93
2018-11-07T05:06:37.391Z,16.67
2018-11-07T05:09:06.841Z,18.23
2018-11-07T05:11:35.400Z,15.33
2018-11-07T05:14:04.247Z,17.23
2018-11-07T05:16:32.443Z,15.93
2018-11-07T05:19:00.961Z,16.30
2018-11-07T05:21:29.207Z,16.50
2018-11-07T05:23:57.528Z,16.07
2018-11-07T05:26:25.804Z,17.77
2018-11-07T05:28:53.954Z,16.20
2018-11-07T05:31:22.242Z,19.90
2018-11-07T05:33:51.016Z,20.53
2018-11-07T05:36:19.587Z,17.50
2018-11-07T05:38:48.114Z,18.47
2018-11-07T05:41:16.660Z,19.47
2018-11-07T05:43:45.197Z,17.83
2018-11-07T05:46:13.451Z,17.70
2018-11-07T05:48:42.110Z,17.43
2018-11-07T05:53:50.425Z,19.23
2018-11-07T05:56:18.946Z,19.13
2018-11-07T05:58:47.169Z,18.47
2018-11-07T06:01:15.442Z,19.37
2018-11-07T06:03:44.154Z,18.60
2018-11-07T06:06:12.424Z,22.23
2018-11-07T06:08:40.684Z,17.67
2018-11-07T06:11:09.471Z,19.10
2018-11-07T06:13:37.758Z,20.83
2018-11-07T06:16:06.429Z,25.07
2018-11-07T06:18:34.899Z,17.60
2018-11-07T06:21:03.176Z,16.27
2018-11-07T06:23:31.872Z,20.80
2018-11-07T06:26:00.143Z,16.27
2018-11-07T06:28:28.424Z,20.57
2018-11-07T06:30:56.904Z,17.47
2018-11-07T06:33:25.718Z,20.43
2018-11-07T06:35:54.142Z,22.77
2018-11-07T06:38:22.958Z,23.23
2018-11-07T06:40:51.555Z,25.53
2018-11-07T06:43:20.137Z,25.07
2018-11-07T06:45:48.394Z,21.13
2018-11-07T06:48:16.652Z,21.63
2018-11-07T06:50:44.866Z,20.13
2018-11-07T06:53:13.119Z,21.47
2018-11-07T06:55:42.160Z,19.30
2018-11-07T06:58:10.438Z,18.87
2018-11-07T07:00:39.292Z,22.40
2018-11-07T07:03:08.171Z,18.47
2018-11-07T07:05:36.406Z,18.83
2018-11-07T07:08:04.803Z,19.67
2018-11-07T07:10:33.309Z,20.37
2018-11-07T07:13:01.968Z,20.17
2018-11-07T07:15:30.661Z,19.33
2018-11-07T07:17:59.269Z,19.07
2018-11-07T07:20:27.842Z,20.30
2018-11-07T07:22:56.068Z,19.20
2018-11-07T07:25:24.330Z,19.27
2018-11-07T07:27:52.831Z,21.07
2018-11-07T07:30:21.820Z,19.87
2018-11-07T07:32:50.443Z,19.47
2018-11-07T07:35:19.195Z,21.57
2018-11-07T07:37:47.822Z,20.87
2018-11-07T07:40:16.611Z,22.63
2018-11-07T07:42:46.934Z,19.50
2018-11-07T07:45:17.682Z,19.93
2018-11-07T07:47:46.058Z,20.17
2018-11-07T07:50:15.601Z,20.07
2018-11-07T07:52:44.398Z,22.07
2018-11-07T07:55:13.326Z,22.27
2018-11-07T07:57:42.139Z,21.47
2018-11-07T08:00:11.973Z,21.03
2018-11-07T08:02:42.614Z,19.80
2018-11-07T08:05:11.543Z,22.63
2018-11-07T08:07:40.234Z,24.10
2018-11-07T08:10:10.914Z,22.37
2018-11-07T08:12:39.515Z,22.33
2018-11-07T08:15:08.291Z,21.40
2018-11-07T08:17:36.971Z,22.03
2018-11-07T08:20:06.231Z,21.77
2018-11-07T08:22:34.504Z,21.07
2018-11-07T08:25:03.345Z,23.10
2018-11-07T08:27:32.508Z,21.47
2018-11-07T08:30:00.785Z,21.53
2018-11-07T08:32:29.043Z,21.80
2018-11-07T08:34:57.311Z,20.80
2018-11-07T08:37:26.315Z,25.37
2018-11-07T08:39:54.588Z,22.63
2018-11-07T08:42:22.941Z,23.77
2018-11-07T08:44:51.218Z,23.57
2018-11-07T08:47:19.443Z,23.90
2018-11-07T08:49:47.736Z,24.33
2018-11-07T08:52:16.615Z,23.37
2018-11-07T08:54:45.458Z,23.53
2018-11-07T08:57:13.678Z,24.43
2018-11-07T08:59:42.584Z,25.43
2018-11-07T09:02:10.924Z,24.27
2018-11-07T09:04:39.646Z,26.67
2018-11-07T09:07:07.924Z,26.13
2018-11-07T09:09:36.180Z,26.50
2018-11-07T09:12:05.603Z,23.27
2018-11-07T09:14:33.815Z,24.97
2018-11-07T09:17:02.611Z,23.87
2018-11-07T09:19:30.840Z,27.03
2018-11-07T09:21:59.063Z,29.17
2018-11-07T09:24:27.404Z,26.07
2018-11-07T09:26:55.591Z,28.40
2018-11-07T09:29:23.973Z,28.07
2018-11-07T09:31:52.165Z,26.07
2018-11-07T09:34:20.548Z,26.43
2018-11-07T09:36:49.330Z,28.27
2018-11-07T09:39:17.602Z,26.70
2018-11-07T09:41:45.863Z,28.80
2018-11-07T09:44:14.167Z,26.43
2018-11-07T09:46:42.843Z,25.93
2018-11-07T09:49:11.738Z,26.17
2018-11-07T09:51:39.938Z,27.43
2018-11-07T09:54:08.750Z,25.60
2018-11-07T09:56:36.951Z,28.17
2018-11-07T09:59:05.928Z,26.30
2018-11-07T10:01:34.167Z,25.97
2018-11-07T10:04:03.113Z,26.17
2018-11-07T10:06:31.367Z,26.87
2018-11-07T10:09:00.080Z,26.33
2018-11-07T10:11:28.429Z,26.33
2018-11-07T10:13:57.209Z,25.43
2018-11-07T10:16:25.459Z,29.10
2018-11-07T10:18:54.268Z,27.17
2018-11-07T10:21:22.739Z,28.07
2018-11-07T10:23:51.027Z,27.40
2018-11-07T10:26:19.562Z,30.40
2018-11-07T10:28:48.037Z,27.53
2018-11-07T10:31:16.185Z,25.83
2018-11-07T10:33:45.157Z,25.27
2018-11-07T10:36:13.426Z,25.60
2018-11-07T10:38:42.604Z,25.20
2018-11-07T10:41:10.743Z,26.97
2018-11-07T10:43:39.015Z,24.37
2018-11-07T10:46:07.685Z,26.57
2018-11-07T10:48:35.920Z,25.23
2018-11-07T10:51:04.192Z,26.73
2018-11-07T10:53:32.450Z,25.80
2018-11-07T10:56:01.183Z,25.40
2018-11-07T10:58:29.409Z,25.40
2018-11-07T11:01:04.189Z,25.03
2018-11-07T11:03:33.043Z,24.17
2018-11-07T11:06:01.302Z,24.57
2018-11-07T11:08:29.520Z,22.93
2018-11-07T11:10:57.803Z,26.50
2018-11-07T11:13:26.082Z,25.03
2018-11-07T11:15:54.431Z,23.25
2018-11-07T11:18:22.903Z,26.00
2018-11-07T11:20:51.179Z,25.20
2018-11-07T11:23:19.471Z,24.33
2018-11-07T11:25:47.732Z,23.33
2018-11-07T11:28:15.956Z,23.23
2018-11-07T11:30:44.232Z,24.97
2018-11-07T11:33:12.868Z,22.70
2018-11-07T11:35:41.091Z,24.33
2018-11-07T11:38:09.626Z,24.47
2018-11-07T11:40:38.444Z,23.07
2018-11-07T11:43:06.743Z,24.50
2018-11-07T11:45:35.011Z,24.07
2018-11-07T11:48:03.291Z,21.85
2018-11-07T11:50:32.027Z,23.10
2018-11-07T11:53:00.304Z,21.40
2018-11-07T11:55:28.887Z,21.45
2018-11-07T11:57:57.113Z,22.13
2018-11-07T12:00:25.340Z,21.62
2018-11-07T12:02:54.124Z,21.00
2018-11-07T12:05:22.863Z,22.77
2018-11-07T12:07:51.103Z,21.97
2018-11-07T12:10:21.511Z,21.83
2018-11-07T12:12:51.810Z,21.17
2018-11-07T12:15:21.084Z,20.85
2018-11-07T12:17:49.821Z,21.47
2018-11-07T12:20:18.730Z,21.60
2018-11-07T12:22:47.114Z,20.97
2018-11-07T12:25:16.032Z,20.92
2018-11-07T12:27:44.435Z,21.97
2018-11-07T12:30:15.523Z,20.80
2018-11-07T12:32:44.912Z,21.75
2018-11-07T12:35:14.099Z,22.62
2018-11-07T12:37:43.604Z,22.43
2018-11-07T12:40:12.316Z,22.45
2018-11-07T12:42:41.447Z,24.57
2018-11-07T12:45:10.999Z,23.03
2018-11-07T12:47:41.119Z,23.00
2018-11-07T12:50:11.587Z,23.70
2018-11-07T12:52:39.687Z,24.27
2018-11-07T12:55:09.811Z,22.30
2018-11-07T12:57:38.274Z,22.27
2018-11-07T13:00:10.641Z,23.10
2018-11-07T13:02:39.428Z,22.53
2018-11-07T13:05:09.162Z,23.57
2018-11-07T13:07:37.386Z,22.62
2018-11-07T13:10:07.819Z,25.50
2018-11-07T13:12:36.105Z,23.87
2018-11-07T13:15:05.675Z,23.25
2018-11-07T13:17:35.232Z,23.62
2018-11-07T13:20:03.573Z,24.13
2018-11-07T13:22:31.906Z,22.63
2018-11-07T13:25:00.557Z,22.90
2018-11-07T13:27:28.785Z,22.17
2018-11-07T13:29:57.035Z,23.20
2018-11-07T13:32:25.263Z,23.38
2018-11-07T13:34:54.034Z,23.30
2018-11-07T13:37:22.870Z,24.03
2018-11-07T13:39:50.958Z,22.97
2018-11-07T13:42:19.155Z,23.35
2018-11-07T13:44:47.510Z,24.27
2018-11-07T13:47:15.717Z,23.57
2018-11-07T13:49:44.067Z,23.07
2018-11-07T13:52:12.288Z,24.45
2018-11-07T13:54:41.312Z,23.60
2018-11-07T13:57:09.535Z,22.10
2018-11-07T13:59:37.781Z,24.63
2018-11-07T14:02:06.011Z,24.27
2018-11-07T14:04:34.774Z,23.22
2018-11-07T14:07:03.056Z,22.30
2018-11-07T14:09:31.322Z,23.50
2018-11-07T14:12:00.143Z,23.53
2018-11-07T14:14:28.381Z,24.10
2018-11-07T14:16:57.147Z,24.90
2018-11-07T14:19:25.373Z,23.40
2018-11-07T14:21:53.992Z,23.47
2018-11-07T14:24:22.787Z,25.53
2018-11-07T14:26:51.020Z,25.00
2018-11-07T14:29:19.262Z,24.67
2018-11-07T14:31:47.554Z,22.10
2018-11-07T14:34:15.796Z,22.43
2018-11-07T14:36:44.751Z,23.00
2018-11-07T14:39:13.004Z,24.20
2018-11-07T14:41:41.259Z,24.37
2018-11-07T14:44:09.539Z,23.35
2018-11-07T14:46:37.854Z,23.50
2018-11-07T14:49:06.095Z,22.57
2018-11-07T14:51:34.367Z,23.73
2018-11-07T14:54:03.129Z,23.20
2018-11-07T14:56:31.920Z,24.07
2018-11-07T14:59:00.212Z,23.50
2018-11-07T15:01:28.822Z,22.73
2018-11-07T15:03:57.579Z,24.73
2018-11-07T15:06:25.820Z,24.87
2018-11-07T15:08:54.243Z,25.50
2018-11-07T15:11:22.867Z,23.90
2018-11-07T15:13:51.060Z,23.87
2018-11-07T15:16:19.786Z,22.87
2018-11-07T15:18:48.679Z,24.20
2018-11-07T15:21:16.921Z,24.93
2018-11-07T15:23:45.149Z,24.03
2018-11-07T15:26:13.683Z,25.47
2018-11-07T15:28:41.970Z,26.43
2018-11-07T15:31:10.236Z,26.37
2018-11-07T15:33:38.715Z,24.57
2018-11-07T15:36:07.038Z,23.77
2018-11-07T15:38:35.443Z,23.33
2018-11-07T15:41:03.719Z,24.43
2018-11-07T15:43:32.015Z,24.27
2018-11-07T15:46:00.291Z,24.23
2018-11-07T15:48:28.567Z,26.43
2018-11-07T15:51:02.146Z,26.10
2018-11-07T15:53:31.056Z,24.20
2018-11-07T15:55:59.895Z,25.13
2018-11-07T15:58:28.635Z,25.40
2018-11-07T16:00:56.939Z,26.00
2018-11-07T16:03:30.959Z,25.70
2018-11-07T16:05:59.223Z,26.17
2018-11-07T16:08:27.860Z,27.90
2018-11-07T16:10:56.086Z,27.90
2018-11-07T16:13:24.398Z,28.33
2018-11-07T16:15:52.635Z,28.07
2018-11-07T16:18:21.175Z,30.10
2018-11-07T16:20:49.512Z,27.27
2018-11-07T16:23:17.730Z,26.00
2018-11-07T16:25:46.078Z,31.27
2018-11-07T16:28:14.382Z,37.10
2018-11-07T16:33:11.933Z,29.23
2018-11-07T16:35:40.175Z,29.67
2018-11-07T16:38:09.268Z,28.37
2018-11-07T16:40:38.430Z,29.80
2018-11-07T16:43:06.995Z,31.77
2018-11-07T16:45:35.699Z,31.87
2018-11-07T16:48:04.384Z,31.97
2018-11-07T16:50:32.642Z,41.20
2018-11-07T16:53:01.380Z,31.97
2018-11-07T16:55:30.067Z,30.87
2018-11-07T16:57:58.343Z,32.53
2018-11-07T17:00:26.580Z,34.03
2018-11-07T17:02:56.210Z,31.47
2018-11-07T17:05:24.831Z,31.57
2018-11-07T17:07:53.063Z,29.40
2018-11-07T17:10:21.323Z,29.57
2018-11-07T17:12:49.616Z,30.97
2018-11-07T17:15:17.890Z,31.70
2018-11-07T17:17:46.394Z,31.07
2018-11-07T17:20:15.692Z,31.93
2018-11-07T17:22:44.057Z,29.47
2018-11-07T17:25:14.379Z,31.73
2018-11-07T17:27:42.788Z,33.27
2018-11-07T17:30:12.227Z,28.47
2018-11-07T17:32:41.033Z,30.10
2018-11-07T17:35:11.117Z,30.10
2018-11-07T17:37:40.052Z,37.30
2018-11-07T17:40:10.602Z,32.73
2018-11-07T17:42:39.339Z,31.43
2018-11-07T17:45:10.607Z,30.20
2018-11-07T17:47:39.289Z,34.13
2018-11-07T17:50:08.740Z,32.40
2018-11-07T17:52:37.095Z,30.07
2018-11-07T17:55:06.204Z,31.00
2018-11-07T17:57:34.471Z,32.77
2018-11-07T18:00:02.810Z,31.03
2018-11-07T18:02:31.382Z,33.07
2018-11-07T18:05:00.105Z,32.33
2018-11-07T18:07:28.888Z,28.27
2018-11-07T18:09:57.288Z,32.83
2018-11-07T18:12:25.443Z,31.07
2018-11-07T18:14:53.702Z,29.67
2018-11-07T18:17:22.383Z,29.03
2018-11-07T18:19:50.967Z,33.83
2018-11-07T18:22:19.231Z,30.43
2018-11-07T18:24:47.458Z,30.23
2018-11-07T18:27:16.340Z,32.83
2018-11-07T18:29:44.622Z,32.47
2018-11-07T18:32:12.924Z,31.30
2018-11-07T18:34:41.171Z,32.53
2018-11-07T18:37:09.979Z,33.27
2018-11-07T18:39:38.635Z,31.33
2018-11-07T18:42:07.831Z,30.13
2018-11-07T18:44:36.165Z,33.03
2018-11-07T18:47:05.144Z,32.03
2018-11-07T18:49:33.373Z,31.97
2018-11-07T18:52:01.660Z,30.13
2018-11-07T18:54:30.411Z,30.83
2018-11-07T18:56:59.446Z,32.00
2018-11-07T18:59:27.719Z,29.70
2018-11-07T19:01:55.974Z,32.17
2018-11-07T19:04:24.826Z,32.90
2018-11-07T19:06:53.131Z,30.70
2018-11-07T19:09:21.918Z,30.47
2018-11-07T19:11:50.168Z,34.40
2018-11-07T19:14:18.379Z,34.90
2018-11-07T19:16:47.299Z,31.83
2018-11-07T19:19:15.739Z,35.10
2018-11-07T19:21:43.995Z,31.97
2018-11-07T19:24:12.631Z,34.10
2018-11-07T19:26:41.932Z,31.33
2018-11-07T19:29:10.103Z,32.87
2018-11-07T19:31:38.375Z,31.67
2018-11-07T19:34:06.652Z,33.73
2018-11-07T19:36:35.965Z,31.77
2018-11-07T19:39:07.219Z,31.77
2018-11-07T19:41:36.100Z,37.00
2018-11-07T19:44:04.879Z,32.70
2018-11-07T19:46:33.683Z,36.67
2018-11-07T19:49:01.916Z,31.30
2018-11-07T19:51:30.235Z,33.50
2018-11-07T19:53:58.924Z,30.33
2018-11-07T19:56:27.076Z,35.37
2018-11-07T19:58:55.434Z,31.73
2018-11-07T20:01:23.719Z,29.73
2018-11-07T20:03:52.287Z,31.47
2018-11-07T20:06:20.953Z,29.73
2018-11-07T20:08:49.897Z,30.60
2018-11-07T20:11:18.142Z,29.83
2018-11-07T20:13:46.427Z,33.10
2018-11-07T20:16:14.978Z,31.37
2018-11-07T20:18:43.670Z,34.37
2018-11-07T20:21:11.880Z,30.07
2018-11-07T20:23:40.121Z,32.97
2018-11-07T20:26:08.827Z,34.53
2018-11-07T20:28:37.092Z,34.90
2018-11-07T20:31:05.652Z,36.20
2018-11-07T20:33:34.347Z,34.80
2018-11-07T20:36:02.676Z,36.47
2018-11-07T20:38:31.645Z,34.70
2018-11-07T20:41:00.499Z,34.13
2018-11-07T20:43:28.746Z,35.83
2018-11-07T20:45:57.430Z,33.73
2018-11-07T20:48:25.672Z,38.20
2018-11-07T20:50:53.902Z,35.43
2018-11-07T20:53:22.520Z,33.80
2018-11-07T20:55:51.229Z,36.10
2018-11-07T20:58:20.026Z,38.63
2018-11-07T21:00:48.319Z,34.30
2018-11-07T21:03:17.120Z,34.13
2018-11-07T21:05:45.362Z,41.00
2018-11-07T21:08:13.583Z,40.97
2018-11-07T21:10:41.812Z,35.37
2018-11-07T21:13:10.101Z,35.13
2018-11-07T21:15:38.514Z,37.57
2018-11-07T21:18:07.111Z,37.73
2018-11-07T21:20:35.992Z,36.63
2018-11-07T21:23:04.295Z,36.20
2018-11-07T21:25:32.941Z,36.27
2018-11-07T21:28:01.227Z,36.70
2018-11-07T21:30:29.551Z,37.10
2018-11-07T21:32:57.887Z,36.57
2018-11-07T21:35:26.219Z,33.07
2018-11-07T21:37:54.838Z,34.03
2018-11-07T21:40:23.067Z,34.57
2018-11-07T21:42:51.965Z,35.33
2018-11-07T21:45:20.639Z,38.10
2018-11-07T21:47:48.915Z,33.80
2018-11-07T21:50:17.659Z,33.63
2018-11-07T21:52:46.696Z,34.60
2018-11-07T21:55:15.376Z,35.27
2018-11-07T21:57:43.657Z,34.97
2018-11-07T22:00:17.921Z,36.23
2018-11-07T22:02:46.793Z,32.20
2018-11-07T22:05:16.163Z,34.80
2018-11-07T22:07:44.491Z,36.47
2018-11-07T22:10:14.974Z,31.77
2018-11-07T22:12:43.233Z,31.67
2018-11-07T22:15:11.515Z,32.37
2018-11-07T22:17:40.457Z,32.90
2018-11-07T22:20:11.035Z,32.13
2018-11-07T22:22:39.286Z,31.83
2018-11-07T22:25:07.592Z,31.60
2018-11-07T22:27:36.053Z,32.53
2018-11-07T22:30:04.655Z,30.93
2018-11-07T22:32:33.087Z,33.80
2018-11-07T22:35:01.408Z,30.67
2018-11-07T22:37:30.038Z,29.23
2018-11-07T22:39:58.529Z,27.67
2018-11-07T22:42:27.260Z,30.97
2018-11-07T22:44:55.508Z,27.67
2018-11-07T22:47:24.091Z,30.87
2018-11-07T22:49:52.354Z,31.07
2018-11-07T22:52:20.623Z,30.97
2018-11-07T22:54:49.356Z,34.17
2018-11-07T22:57:18.091Z,28.90
2018-11-07T22:59:46.340Z,30.80
2018-11-07T23:02:14.608Z,26.63
2018-11-07T23:04:43.456Z,27.00
2018-11-07T23:07:11.668Z,29.33
2018-11-07T23:09:39.908Z,26.37
2018-11-07T23:12:08.653Z,26.57
2018-11-07T23:14:36.900Z,26.03
2018-11-07T23:17:05.452Z,24.70
2018-11-07T23:19:33.672Z,26.67
2018-11-07T23:22:01.943Z,24.93
2018-11-07T23:24:30.715Z,25.13
2018-11-07T23:27:04.947Z,27.50
2018-11-07T23:29:33.259Z,33.27
2018-11-07T23:32:01.531Z,26.60
2018-11-07T23:34:29.831Z,25.90
2018-11-07T23:36:58.405Z,25.07
2018-11-07T23:39:26.627Z,27.30
2018-11-07T23:41:55.911Z,30.43
2018-11-07T23:44:24.875Z,26.33
2018-11-07T23:46:53.567Z,30.40
2018-11-07T23:49:21.871Z,28.63
2018-11-07T23:51:50.618Z,32.73
2018-11-07T23:54:21.055Z,26.70
2018-11-07T23:56:49.871Z,27.57
2018-11-07T23:59:18.362Z,30.07
